<?xml version="1.0" encoding="UTF-8" standalone="no" ?>
<gpx xmlns="http://www.topografix.com/GPX/1/1" xmlns:xsi="http://www.w3.org/2001/XMLSchema-instance" xsi:schemaLocation="http://www.topografix.com/GPX/1/1 http://www.topografix.com/GPX/1/1/gpx.xsd" version="1.1" creator="VisuGPX - https://www.visugpx.com">
  <metadata>
    <name>rando2</name>
    <desc><![CDATA[rando 22 avril Sonia Patrick Edmée Francis]]></desc>
  </metadata>
  <wpt lat="48.67223" lon="2.42985">
    <ele>81.356689453125</ele>
    <name><![CDATA[001]]></name>
    <desc><![CDATA[22-AVR-15 12:10:28]]></desc>
    <cmt><![CDATA[22-AVR-15 12:10:28]]></cmt>
  </wpt>
  <wpt lat="48.67396" lon="2.44477">
    <ele>87.845458984375</ele>
    <name><![CDATA[002]]></name>
    <desc><![CDATA[22-AVR-15 12:55:47]]></desc>
    <cmt><![CDATA[22-AVR-15 12:55:47]]></cmt>
  </wpt>
  <trk>
    <name><![CDATA[ACTIVE LOG 004]]></name>
    <trkseg>
      <trkpt lat="48.67397" lon="2.44457">
        <ele>89.059326171875</ele>
        <time>2015-04-22T11:55:26Z</time>
      </trkpt>
      <trkpt lat="48.674" lon="2.4445">
        <ele>84.252685546875</ele>
        <time>2015-04-22T11:56:26Z</time>
      </trkpt>
      <trkpt lat="48.67388" lon="2.44466">
        <ele>84.7333984375</ele>
        <time>2015-04-22T11:57:26Z</time>
      </trkpt>
      <trkpt lat="48.67404" lon="2.44528">
        <ele>84.7333984375</ele>
        <time>2015-04-22T11:58:26Z</time>
      </trkpt>
      <trkpt lat="48.67423" lon="2.44615">
        <ele>83.77197265625</ele>
        <time>2015-04-22T11:59:26Z</time>
      </trkpt>
      <trkpt lat="48.67444" lon="2.44699">
        <ele>82.810791015625</ele>
        <time>2015-04-22T12:00:28Z</time>
      </trkpt>
      <trkpt lat="48.67466" lon="2.44785">
        <ele>84.7333984375</ele>
        <time>2015-04-22T12:01:28Z</time>
      </trkpt>
      <trkpt lat="48.67489" lon="2.44881">
        <ele>84.252685546875</ele>
        <time>2015-04-22T12:02:28Z</time>
      </trkpt>
      <trkpt lat="48.67508" lon="2.44969">
        <ele>85.213989257812</ele>
        <time>2015-04-22T12:03:28Z</time>
      </trkpt>
      <trkpt lat="48.67529" lon="2.45058">
        <ele>83.291381835938</ele>
        <time>2015-04-22T12:04:28Z</time>
      </trkpt>
      <trkpt lat="48.67553" lon="2.45156">
        <ele>83.77197265625</ele>
        <time>2015-04-22T12:05:28Z</time>
      </trkpt>
      <trkpt lat="48.6753" lon="2.45235">
        <ele>82.810791015625</ele>
        <time>2015-04-22T12:06:28Z</time>
      </trkpt>
      <trkpt lat="48.67494" lon="2.45318">
        <ele>84.7333984375</ele>
        <time>2015-04-22T12:07:28Z</time>
      </trkpt>
      <trkpt lat="48.67458" lon="2.45401">
        <ele>83.291381835938</ele>
        <time>2015-04-22T12:08:28Z</time>
      </trkpt>
      <trkpt lat="48.67421" lon="2.45479">
        <ele>83.77197265625</ele>
        <time>2015-04-22T12:09:28Z</time>
      </trkpt>
      <trkpt lat="48.67386" lon="2.45559">
        <ele>84.7333984375</ele>
        <time>2015-04-22T12:10:28Z</time>
      </trkpt>
      <trkpt lat="48.67345" lon="2.45647">
        <ele>85.213989257812</ele>
        <time>2015-04-22T12:11:28Z</time>
      </trkpt>
      <trkpt lat="48.67306" lon="2.4573">
        <ele>84.7333984375</ele>
        <time>2015-04-22T12:12:28Z</time>
      </trkpt>
      <trkpt lat="48.67267" lon="2.4581">
        <ele>85.213989257812</ele>
        <time>2015-04-22T12:13:28Z</time>
      </trkpt>
      <trkpt lat="48.6723" lon="2.45889">
        <ele>85.694580078125</ele>
        <time>2015-04-22T12:14:28Z</time>
      </trkpt>
      <trkpt lat="48.67186" lon="2.45951">
        <ele>85.213989257812</ele>
        <time>2015-04-22T12:15:28Z</time>
      </trkpt>
      <trkpt lat="48.6719" lon="2.46025">
        <ele>84.7333984375</ele>
        <time>2015-04-22T12:16:28Z</time>
      </trkpt>
      <trkpt lat="48.67213" lon="2.46118">
        <ele>83.291381835938</ele>
        <time>2015-04-22T12:17:28Z</time>
      </trkpt>
      <trkpt lat="48.67236" lon="2.46206">
        <ele>83.291381835938</ele>
        <time>2015-04-22T12:18:28Z</time>
      </trkpt>
      <trkpt lat="48.67234" lon="2.46291">
        <ele>83.291381835938</ele>
        <time>2015-04-22T12:19:28Z</time>
      </trkpt>
      <trkpt lat="48.67174" lon="2.46344">
        <ele>83.291381835938</ele>
        <time>2015-04-22T12:20:28Z</time>
      </trkpt>
      <trkpt lat="48.67119" lon="2.46402">
        <ele>82.810791015625</ele>
        <time>2015-04-22T12:21:28Z</time>
      </trkpt>
      <trkpt lat="48.67059" lon="2.46459">
        <ele>83.77197265625</ele>
        <time>2015-04-22T12:22:28Z</time>
      </trkpt>
      <trkpt lat="48.67002" lon="2.46516">
        <ele>82.810791015625</ele>
        <time>2015-04-22T12:23:28Z</time>
      </trkpt>
      <trkpt lat="48.66941" lon="2.46576">
        <ele>83.77197265625</ele>
        <time>2015-04-22T12:24:28Z</time>
      </trkpt>
      <trkpt lat="48.66882" lon="2.46636">
        <ele>84.252685546875</ele>
        <time>2015-04-22T12:25:28Z</time>
      </trkpt>
      <trkpt lat="48.6682" lon="2.46693">
        <ele>85.213989257812</ele>
        <time>2015-04-22T12:26:28Z</time>
      </trkpt>
      <trkpt lat="48.66763" lon="2.46749">
        <ele>86.17529296875</ele>
        <time>2015-04-22T12:27:28Z</time>
      </trkpt>
      <trkpt lat="48.66703" lon="2.46808">
        <ele>86.17529296875</ele>
        <time>2015-04-22T12:28:28Z</time>
      </trkpt>
      <trkpt lat="48.66642" lon="2.46868">
        <ele>86.17529296875</ele>
        <time>2015-04-22T12:29:28Z</time>
      </trkpt>
      <trkpt lat="48.66579" lon="2.46928">
        <ele>86.17529296875</ele>
        <time>2015-04-22T12:30:28Z</time>
      </trkpt>
      <trkpt lat="48.66508" lon="2.46999">
        <ele>85.694580078125</ele>
        <time>2015-04-22T12:31:28Z</time>
      </trkpt>
      <trkpt lat="48.66443" lon="2.47061">
        <ele>85.213989257812</ele>
        <time>2015-04-22T12:32:28Z</time>
      </trkpt>
      <trkpt lat="48.66382" lon="2.47119">
        <ele>85.694580078125</ele>
        <time>2015-04-22T12:33:28Z</time>
      </trkpt>
      <trkpt lat="48.66322" lon="2.47179">
        <ele>88.098022460938</ele>
        <time>2015-04-22T12:34:28Z</time>
      </trkpt>
      <trkpt lat="48.66261" lon="2.47239">
        <ele>88.098022460938</ele>
        <time>2015-04-22T12:35:28Z</time>
      </trkpt>
      <trkpt lat="48.66194" lon="2.47304">
        <ele>87.6171875</ele>
        <time>2015-04-22T12:36:28Z</time>
      </trkpt>
      <trkpt lat="48.66127" lon="2.47366">
        <ele>87.136596679688</ele>
        <time>2015-04-22T12:37:28Z</time>
      </trkpt>
      <trkpt lat="48.66063" lon="2.47429">
        <ele>87.6171875</ele>
        <time>2015-04-22T12:38:28Z</time>
      </trkpt>
      <trkpt lat="48.65998" lon="2.47491">
        <ele>88.098022460938</ele>
        <time>2015-04-22T12:39:28Z</time>
      </trkpt>
      <trkpt lat="48.65935" lon="2.47552">
        <ele>88.578735351562</ele>
        <time>2015-04-22T12:40:28Z</time>
      </trkpt>
      <trkpt lat="48.6587" lon="2.47616">
        <ele>89.059326171875</ele>
        <time>2015-04-22T12:41:28Z</time>
      </trkpt>
      <trkpt lat="48.65803" lon="2.4768">
        <ele>90.020629882812</ele>
        <time>2015-04-22T12:42:28Z</time>
      </trkpt>
      <trkpt lat="48.65736" lon="2.47745">
        <ele>89.539916992188</ele>
        <time>2015-04-22T12:43:28Z</time>
      </trkpt>
      <trkpt lat="48.65669" lon="2.47811">
        <ele>88.578735351562</ele>
        <time>2015-04-22T12:44:28Z</time>
      </trkpt>
      <trkpt lat="48.65606" lon="2.47878">
        <ele>89.059326171875</ele>
        <time>2015-04-22T12:45:28Z</time>
      </trkpt>
      <trkpt lat="48.65615" lon="2.47962">
        <ele>88.578735351562</ele>
        <time>2015-04-22T12:46:28Z</time>
      </trkpt>
      <trkpt lat="48.65638" lon="2.48056">
        <ele>89.539916992188</ele>
        <time>2015-04-22T12:47:28Z</time>
      </trkpt>
      <trkpt lat="48.65663" lon="2.48162">
        <ele>88.578735351562</ele>
        <time>2015-04-22T12:48:28Z</time>
      </trkpt>
      <trkpt lat="48.65688" lon="2.48263">
        <ele>89.059326171875</ele>
        <time>2015-04-22T12:49:28Z</time>
      </trkpt>
      <trkpt lat="48.65709" lon="2.48364">
        <ele>89.539916992188</ele>
        <time>2015-04-22T12:50:28Z</time>
      </trkpt>
      <trkpt lat="48.65739" lon="2.48476">
        <ele>89.539916992188</ele>
        <time>2015-04-22T12:51:28Z</time>
      </trkpt>
      <trkpt lat="48.65764" lon="2.48587">
        <ele>89.539916992188</ele>
        <time>2015-04-22T12:52:28Z</time>
      </trkpt>
      <trkpt lat="48.65787" lon="2.48689">
        <ele>89.539916992188</ele>
        <time>2015-04-22T12:53:28Z</time>
      </trkpt>
      <trkpt lat="48.65772" lon="2.48786">
        <ele>89.539916992188</ele>
        <time>2015-04-22T12:54:28Z</time>
      </trkpt>
      <trkpt lat="48.6575" lon="2.48894">
        <ele>89.059326171875</ele>
        <time>2015-04-22T12:55:28Z</time>
      </trkpt>
      <trkpt lat="48.65726" lon="2.48998">
        <ele>87.6171875</ele>
        <time>2015-04-22T12:56:28Z</time>
      </trkpt>
      <trkpt lat="48.65702" lon="2.49104">
        <ele>88.098022460938</ele>
        <time>2015-04-22T12:57:28Z</time>
      </trkpt>
      <trkpt lat="48.65685" lon="2.49195">
        <ele>87.136596679688</ele>
        <time>2015-04-22T12:58:28Z</time>
      </trkpt>
      <trkpt lat="48.65686" lon="2.49247">
        <ele>87.6171875</ele>
        <time>2015-04-22T12:59:28Z</time>
      </trkpt>
      <trkpt lat="48.65717" lon="2.49253">
        <ele>87.136596679688</ele>
        <time>2015-04-22T13:00:28Z</time>
      </trkpt>
      <trkpt lat="48.65714" lon="2.4925">
        <ele>87.136596679688</ele>
        <time>2015-04-22T13:01:28Z</time>
      </trkpt>
      <trkpt lat="48.65714" lon="2.49254">
        <ele>87.136596679688</ele>
        <time>2015-04-22T13:02:28Z</time>
      </trkpt>
      <trkpt lat="48.65716" lon="2.49258">
        <ele>87.136596679688</ele>
        <time>2015-04-22T13:03:28Z</time>
      </trkpt>
      <trkpt lat="48.65716" lon="2.49261">
        <ele>85.694580078125</ele>
        <time>2015-04-22T13:04:28Z</time>
      </trkpt>
      <trkpt lat="48.65705" lon="2.49257">
        <ele>85.694580078125</ele>
        <time>2015-04-22T13:05:28Z</time>
      </trkpt>
      <trkpt lat="48.65717" lon="2.49256">
        <ele>84.7333984375</ele>
        <time>2015-04-22T13:06:28Z</time>
      </trkpt>
      <trkpt lat="48.65712" lon="2.49254">
        <ele>84.7333984375</ele>
        <time>2015-04-22T13:07:28Z</time>
      </trkpt>
      <trkpt lat="48.65715" lon="2.49255">
        <ele>86.656005859375</ele>
        <time>2015-04-22T13:08:28Z</time>
      </trkpt>
      <trkpt lat="48.65718" lon="2.49253">
        <ele>85.694580078125</ele>
        <time>2015-04-22T13:09:28Z</time>
      </trkpt>
      <trkpt lat="48.65717" lon="2.49258">
        <ele>83.77197265625</ele>
        <time>2015-04-22T13:10:28Z</time>
      </trkpt>
      <trkpt lat="48.65739" lon="2.49257">
        <ele>84.7333984375</ele>
        <time>2015-04-22T13:11:28Z</time>
      </trkpt>
      <trkpt lat="48.65796" lon="2.49248">
        <ele>85.213989257812</ele>
        <time>2015-04-22T13:12:28Z</time>
      </trkpt>
      <trkpt lat="48.65858" lon="2.49233">
        <ele>84.7333984375</ele>
        <time>2015-04-22T13:13:28Z</time>
      </trkpt>
      <trkpt lat="48.65912" lon="2.49213">
        <ele>85.213989257812</ele>
        <time>2015-04-22T13:14:28Z</time>
      </trkpt>
      <trkpt lat="48.65969" lon="2.49261">
        <ele>84.252685546875</ele>
        <time>2015-04-22T13:15:28Z</time>
      </trkpt>
      <trkpt lat="48.66032" lon="2.49268">
        <ele>84.7333984375</ele>
        <time>2015-04-22T13:16:28Z</time>
      </trkpt>
      <trkpt lat="48.66086" lon="2.49278">
        <ele>86.656005859375</ele>
        <time>2015-04-22T13:17:28Z</time>
      </trkpt>
      <trkpt lat="48.6615" lon="2.49275">
        <ele>86.656005859375</ele>
        <time>2015-04-22T13:18:28Z</time>
      </trkpt>
      <trkpt lat="48.66213" lon="2.4928">
        <ele>85.694580078125</ele>
        <time>2015-04-22T13:19:28Z</time>
      </trkpt>
      <trkpt lat="48.66276" lon="2.49273">
        <ele>85.694580078125</ele>
        <time>2015-04-22T13:20:28Z</time>
      </trkpt>
      <trkpt lat="48.66339" lon="2.49253">
        <ele>86.17529296875</ele>
        <time>2015-04-22T13:21:28Z</time>
      </trkpt>
      <trkpt lat="48.66405" lon="2.49269">
        <ele>84.7333984375</ele>
        <time>2015-04-22T13:22:28Z</time>
      </trkpt>
      <trkpt lat="48.66469" lon="2.49291">
        <ele>84.7333984375</ele>
        <time>2015-04-22T13:23:28Z</time>
      </trkpt>
      <trkpt lat="48.66533" lon="2.493">
        <ele>85.694580078125</ele>
        <time>2015-04-22T13:24:28Z</time>
      </trkpt>
      <trkpt lat="48.66598" lon="2.49338">
        <ele>85.694580078125</ele>
        <time>2015-04-22T13:25:28Z</time>
      </trkpt>
      <trkpt lat="48.66661" lon="2.49365">
        <ele>85.694580078125</ele>
        <time>2015-04-22T13:26:28Z</time>
      </trkpt>
      <trkpt lat="48.66727" lon="2.4939">
        <ele>84.7333984375</ele>
        <time>2015-04-22T13:27:28Z</time>
      </trkpt>
      <trkpt lat="48.66782" lon="2.49412">
        <ele>85.213989257812</ele>
        <time>2015-04-22T13:28:28Z</time>
      </trkpt>
      <trkpt lat="48.66839" lon="2.49447">
        <ele>84.7333984375</ele>
        <time>2015-04-22T13:29:28Z</time>
      </trkpt>
      <trkpt lat="48.66905" lon="2.49485">
        <ele>84.7333984375</ele>
        <time>2015-04-22T13:30:28Z</time>
      </trkpt>
      <trkpt lat="48.66941" lon="2.49502">
        <ele>83.77197265625</ele>
        <time>2015-04-22T13:31:28Z</time>
      </trkpt>
      <trkpt lat="48.66998" lon="2.49515">
        <ele>84.252685546875</ele>
        <time>2015-04-22T13:32:28Z</time>
      </trkpt>
      <trkpt lat="48.67064" lon="2.49514">
        <ele>82.810791015625</ele>
        <time>2015-04-22T13:33:28Z</time>
      </trkpt>
      <trkpt lat="48.67134" lon="2.49513">
        <ele>83.291381835938</ele>
        <time>2015-04-22T13:34:28Z</time>
      </trkpt>
      <trkpt lat="48.67211" lon="2.49515">
        <ele>83.291381835938</ele>
        <time>2015-04-22T13:35:28Z</time>
      </trkpt>
      <trkpt lat="48.67276" lon="2.49531">
        <ele>82.330078125</ele>
        <time>2015-04-22T13:36:28Z</time>
      </trkpt>
      <trkpt lat="48.67346" lon="2.49559">
        <ele>81.849365234375</ele>
        <time>2015-04-22T13:37:28Z</time>
      </trkpt>
      <trkpt lat="48.67401" lon="2.4959">
        <ele>81.368774414062</ele>
        <time>2015-04-22T13:38:28Z</time>
      </trkpt>
      <trkpt lat="48.67481" lon="2.49605">
        <ele>80.88818359375</ele>
        <time>2015-04-22T13:39:28Z</time>
      </trkpt>
      <trkpt lat="48.67544" lon="2.4961">
        <ele>82.330078125</ele>
        <time>2015-04-22T13:40:28Z</time>
      </trkpt>
      <trkpt lat="48.67617" lon="2.49616">
        <ele>81.368774414062</ele>
        <time>2015-04-22T13:41:28Z</time>
      </trkpt>
      <trkpt lat="48.67684" lon="2.4962">
        <ele>80.88818359375</ele>
        <time>2015-04-22T13:42:28Z</time>
      </trkpt>
      <trkpt lat="48.67755" lon="2.4961">
        <ele>81.849365234375</ele>
        <time>2015-04-22T13:43:28Z</time>
      </trkpt>
      <trkpt lat="48.6779" lon="2.49571">
        <ele>80.88818359375</ele>
        <time>2015-04-22T13:44:28Z</time>
      </trkpt>
      <trkpt lat="48.6781" lon="2.49479">
        <ele>81.368774414062</ele>
        <time>2015-04-22T13:45:28Z</time>
      </trkpt>
      <trkpt lat="48.67845" lon="2.49405">
        <ele>81.849365234375</ele>
        <time>2015-04-22T13:46:28Z</time>
      </trkpt>
      <trkpt lat="48.67872" lon="2.4932">
        <ele>82.330078125</ele>
        <time>2015-04-22T13:47:28Z</time>
      </trkpt>
      <trkpt lat="48.67919" lon="2.49265">
        <ele>83.291381835938</ele>
        <time>2015-04-22T13:48:28Z</time>
      </trkpt>
      <trkpt lat="48.67966" lon="2.49224">
        <ele>83.77197265625</ele>
        <time>2015-04-22T13:49:28Z</time>
      </trkpt>
      <trkpt lat="48.68013" lon="2.49157">
        <ele>84.7333984375</ele>
        <time>2015-04-22T13:50:28Z</time>
      </trkpt>
      <trkpt lat="48.68056" lon="2.49115">
        <ele>85.694580078125</ele>
        <time>2015-04-22T13:51:28Z</time>
      </trkpt>
      <trkpt lat="48.68089" lon="2.49077">
        <ele>85.213989257812</ele>
        <time>2015-04-22T13:52:28Z</time>
      </trkpt>
      <trkpt lat="48.68115" lon="2.49049">
        <ele>85.213989257812</ele>
        <time>2015-04-22T13:53:28Z</time>
      </trkpt>
      <trkpt lat="48.68158" lon="2.4899">
        <ele>84.7333984375</ele>
        <time>2015-04-22T13:54:28Z</time>
      </trkpt>
      <trkpt lat="48.68219" lon="2.48962">
        <ele>85.213989257812</ele>
        <time>2015-04-22T13:55:28Z</time>
      </trkpt>
      <trkpt lat="48.68275" lon="2.48936">
        <ele>85.694580078125</ele>
        <time>2015-04-22T13:56:28Z</time>
      </trkpt>
      <trkpt lat="48.68336" lon="2.48967">
        <ele>85.213989257812</ele>
        <time>2015-04-22T13:57:28Z</time>
      </trkpt>
      <trkpt lat="48.68395" lon="2.48971">
        <ele>87.136596679688</ele>
        <time>2015-04-22T13:58:28Z</time>
      </trkpt>
      <trkpt lat="48.68447" lon="2.49001">
        <ele>86.17529296875</ele>
        <time>2015-04-22T13:59:28Z</time>
      </trkpt>
      <trkpt lat="48.68521" lon="2.48999">
        <ele>86.656005859375</ele>
        <time>2015-04-22T14:00:28Z</time>
      </trkpt>
      <trkpt lat="48.68593" lon="2.48999">
        <ele>86.17529296875</ele>
        <time>2015-04-22T14:01:28Z</time>
      </trkpt>
      <trkpt lat="48.6866" lon="2.4898">
        <ele>84.252685546875</ele>
        <time>2015-04-22T14:02:28Z</time>
      </trkpt>
      <trkpt lat="48.68709" lon="2.48925">
        <ele>82.810791015625</ele>
        <time>2015-04-22T14:03:28Z</time>
      </trkpt>
      <trkpt lat="48.68764" lon="2.48848">
        <ele>81.849365234375</ele>
        <time>2015-04-22T14:04:28Z</time>
      </trkpt>
      <trkpt lat="48.68822" lon="2.48773">
        <ele>81.368774414062</ele>
        <time>2015-04-22T14:05:28Z</time>
      </trkpt>
      <trkpt lat="48.68881" lon="2.48698">
        <ele>80.88818359375</ele>
        <time>2015-04-22T14:06:28Z</time>
      </trkpt>
      <trkpt lat="48.68937" lon="2.48623">
        <ele>81.368774414062</ele>
        <time>2015-04-22T14:07:28Z</time>
      </trkpt>
      <trkpt lat="48.68998" lon="2.48549">
        <ele>80.407470703125</ele>
        <time>2015-04-22T14:08:28Z</time>
      </trkpt>
      <trkpt lat="48.69054" lon="2.48474">
        <ele>81.849365234375</ele>
        <time>2015-04-22T14:09:28Z</time>
      </trkpt>
      <trkpt lat="48.69114" lon="2.48401">
        <ele>80.88818359375</ele>
        <time>2015-04-22T14:10:28Z</time>
      </trkpt>
      <trkpt lat="48.69174" lon="2.48329">
        <ele>81.849365234375</ele>
        <time>2015-04-22T14:11:28Z</time>
      </trkpt>
      <trkpt lat="48.69231" lon="2.4826">
        <ele>81.849365234375</ele>
        <time>2015-04-22T14:12:28Z</time>
      </trkpt>
      <trkpt lat="48.69276" lon="2.48322">
        <ele>81.368774414062</ele>
        <time>2015-04-22T14:13:28Z</time>
      </trkpt>
      <trkpt lat="48.69301" lon="2.48348">
        <ele>81.849365234375</ele>
        <time>2015-04-22T14:14:09Z</time>
      </trkpt>
    </trkseg>
  </trk>
</gpx>